createdAt,value
2022-12-25T00:00:05.880Z,56.97
2022-12-25T00:02:33.053Z,62.10
2022-12-25T00:05:00.280Z,62.28
2022-12-25T00:07:27.363Z,60.40
2022-12-25T00:09:54.393Z,62.97
2022-12-25T00:12:22.433Z,57.20
2022-12-25T00:14:49.463Z,68.50
2022-12-25T00:17:16.606Z,66.57
2022-12-25T00:19:43.573Z,65.53
2022-12-25T00:22:10.407Z,70.65
2022-12-25T00:24:37.630Z,69.97
2022-12-25T00:27:04.502Z,68.18
2022-12-25T00:29:31.569Z,73.28
2022-12-25T00:31:58.555Z,71.80
2022-12-25T00:34:25.612Z,66.43
2022-12-25T00:36:52.908Z,72.93
2022-12-25T00:39:19.904Z,64.60
2022-12-25T00:42:05.154Z,78.70
2022-12-25T00:44:32.247Z,66.78
2022-12-25T00:46:59.386Z,64.55
2022-12-25T00:49:26.486Z,68.68
2022-12-25T00:51:53.805Z,73.13
2022-12-25T00:54:20.938Z,68.63
2022-12-25T00:56:48.018Z,68.28
2022-12-25T00:59:15.046Z,74.20
2022-12-25T01:01:42.316Z,70.50
2022-12-25T01:04:10.856Z,73.88
2022-12-25T01:06:38.057Z,70.28
2022-12-25T01:09:23.815Z,72.80
2022-12-25T01:11:50.830Z,67.60
2022-12-25T01:14:17.786Z,80.00
2022-12-25T01:16:44.896Z,70.38
2022-12-25T01:19:12.085Z,72.07
2022-12-25T01:21:39.404Z,70.18
2022-12-25T01:24:07.040Z,67.82
2022-12-25T01:26:33.965Z,81.13
2022-12-25T01:29:02.685Z,78.22
2022-12-25T01:31:29.744Z,93.65
2022-12-25T01:33:56.924Z,79.97
2022-12-25T01:36:25.767Z,81.63
2022-12-25T01:38:54.252Z,79.55
2022-12-25T01:41:23.442Z,74.18
2022-12-25T01:44:16.493Z,69.57
2022-12-25T01:46:44.769Z,70.45
2022-12-25T01:49:14.444Z,73.95
2022-12-25T01:52:02.729Z,77.75
2022-12-25T01:54:36.506Z,79.95
2022-12-25T01:57:07.253Z,80.60
2022-12-25T01:59:34.515Z,73.30
2022-12-25T02:02:03.816Z,72.88
2022-12-25T02:04:39.701Z,67.97
2022-12-25T02:07:32.779Z,77.63
2022-12-25T02:09:59.810Z,67.93
2022-12-25T02:12:29.434Z,64.50
2022-12-25T02:15:05.013Z,68.00
2022-12-25T02:17:51.142Z,71.03
2022-12-25T02:20:46.412Z,76.82
2022-12-25T02:23:23.965Z,70.45
2022-12-25T02:25:59.969Z,66.25
2022-12-25T02:28:35.190Z,68.10
2022-12-25T02:31:09.310Z,67.03
2022-12-25T02:34:07.348Z,68.97
2022-12-25T02:37:06.725Z,67.00
2022-12-25T02:39:59.857Z,66.30
2022-12-25T02:43:14.442Z,73.47
2022-12-25T02:46:00.083Z,77.40
2022-12-25T02:48:47.907Z,92.95
2022-12-25T02:51:35.142Z,89.80
2022-12-25T02:54:30.709Z,85.15
2022-12-25T02:57:17.054Z,74.63
2022-12-25T03:00:06.540Z,83.18
2022-12-25T03:02:52.383Z,94.15
2022-12-25T03:05:41.129Z,93.57
2022-12-25T03:08:11.706Z,100.72
2022-12-25T03:10:59.510Z,97.07
2022-12-25T03:13:34.273Z,95.72
2022-12-25T03:16:20.182Z,116.60
2022-12-25T03:18:47.267Z,92.78
2022-12-25T03:21:33.108Z,104.80
2022-12-25T03:24:20.293Z,90.40
2022-12-25T03:26:56.527Z,114.13
2022-12-25T03:29:48.397Z,99.90
2022-12-25T03:32:40.385Z,98.82
2022-12-25T03:38:35.175Z,96.13
2022-12-25T03:41:40.950Z,92.82
2022-12-25T03:45:05.007Z,113.25
2022-12-25T03:47:59.889Z,103.03
2022-12-25T03:51:04.988Z,128.00
2022-12-25T03:53:57.068Z,103.22
2022-12-25T03:59:27.846Z,91.75
2022-12-25T04:02:13.560Z,95.80
2022-12-25T04:04:59.173Z,94.72
2022-12-25T04:07:44.919Z,108.20
2022-12-25T04:10:30.487Z,95.57
2022-12-25T04:13:16.248Z,104.45
2022-12-25T04:16:01.950Z,111.88
2022-12-25T04:18:47.717Z,101.95
2022-12-25T04:21:33.289Z,98.25
2022-12-25T04:24:18.973Z,75.35
2022-12-25T04:27:04.752Z,79.22
2022-12-25T04:29:50.349Z,91.25
2022-12-25T04:32:36.030Z,82.45
2022-12-25T04:35:21.969Z,84.18
2022-12-25T04:37:48.970Z,88.60
2022-12-25T04:40:16.228Z,76.70
2022-12-25T04:42:43.247Z,146.32
2022-12-25T04:45:10.747Z,82.57
2022-12-25T04:47:37.731Z,92.85
2022-12-25T04:50:05.088Z,146.15
2022-12-25T04:52:36.509Z,72.82
2022-12-25T04:55:04.737Z,140.35
2022-12-25T04:57:31.786Z,96.60
2022-12-25T04:59:58.845Z,151.40
2022-12-25T05:02:26.389Z,166.13
2022-12-25T05:04:53.499Z,108.97
2022-12-25T05:07:20.407Z,211.90
2022-12-25T05:09:47.387Z,179.25
2022-12-25T05:12:14.260Z,145.32
2022-12-25T05:14:41.376Z,123.63
2022-12-25T05:17:08.309Z,139.68
2022-12-25T05:19:35.337Z,108.07
2022-12-25T05:22:02.377Z,127.70
2022-12-25T05:24:29.444Z,213.45
2022-12-25T05:26:56.433Z,136.52
2022-12-25T05:29:23.410Z,158.90
2022-12-25T05:31:50.450Z,182.57
2022-12-25T05:34:17.520Z,253.50
2022-12-25T05:36:44.587Z,134.30
2022-12-25T05:39:11.648Z,205.32
2022-12-25T05:41:38.877Z,343.65
2022-12-25T05:44:05.835Z,146.75
2022-12-25T05:46:32.842Z,115.40
2022-12-25T05:48:59.807Z,220.52
2022-12-25T05:51:26.807Z,161.85
2022-12-25T05:53:53.706Z,117.45
2022-12-25T05:56:20.737Z,137.48
2022-12-25T05:58:47.671Z,162.82
2022-12-25T06:01:20.937Z,128.52
2022-12-25T06:03:48.445Z,111.80
2022-12-25T06:06:15.632Z,144.35
2022-12-25T06:08:43.156Z,114.43
2022-12-25T06:11:10.770Z,201.23
2022-12-25T06:13:37.965Z,451.48
2022-12-25T06:16:06.490Z,313.50
2022-12-25T06:18:46.871Z,210.30
2022-12-25T06:21:15.030Z,194.52
2022-12-25T06:23:42.282Z,153.68
2022-12-25T06:26:15.492Z,192.77
2022-12-25T06:28:43.232Z,159.20
2022-12-25T06:31:13.316Z,170.82
2022-12-25T06:33:40.986Z,166.30
2022-12-25T06:36:25.271Z,226.73
2022-12-25T06:38:52.690Z,160.18
2022-12-25T06:41:24.019Z,209.70
2022-12-25T06:43:53.097Z,179.10
2022-12-25T06:46:21.569Z,137.85
2022-12-25T06:48:50.046Z,156.90
2022-12-25T06:51:25.245Z,134.48
2022-12-25T06:53:52.709Z,125.88
2022-12-25T06:56:24.303Z,114.10
2022-12-25T06:58:57.256Z,124.90
2022-12-25T07:01:44.691Z,104.53
2022-12-25T07:04:35.737Z,124.90
2022-12-25T07:07:08.735Z,115.93
2022-12-25T07:09:39.093Z,94.05
2022-12-25T07:12:11.689Z,98.28
2022-12-25T07:14:38.759Z,89.20
2022-12-25T07:17:05.725Z,105.30
2022-12-25T07:19:32.765Z,98.40
2022-12-25T07:21:59.665Z,98.18
2022-12-25T07:24:26.692Z,96.13
2022-12-25T07:26:53.803Z,76.75
2022-12-25T07:29:20.934Z,104.45
2022-12-25T07:31:47.948Z,111.88
2022-12-25T07:34:16.839Z,96.78
2022-12-25T07:36:43.715Z,106.95
2022-12-25T07:39:11.418Z,102.80
2022-12-25T07:41:38.390Z,88.13
2022-12-25T07:44:15.017Z,98.07
2022-12-25T07:46:42.105Z,94.07
2022-12-25T07:49:09.210Z,87.20
2022-12-25T07:51:36.137Z,92.55
2022-12-25T07:54:03.130Z,91.72
2022-12-25T07:56:30.064Z,89.47
2022-12-25T07:58:57.026Z,102.13
2022-12-25T08:01:27.042Z,95.88
2022-12-25T08:03:56.536Z,101.30
2022-12-25T08:06:26.973Z,99.38
2022-12-25T08:08:54.019Z,92.65
2022-12-25T08:11:21.007Z,99.78
2022-12-25T08:13:48.082Z,98.70
2022-12-25T08:16:15.352Z,87.72
2022-12-25T08:18:43.426Z,87.43
2022-12-25T08:21:18.354Z,94.50
2022-12-25T08:23:47.417Z,84.32
2022-12-25T08:26:16.769Z,100.10
2022-12-25T08:28:43.716Z,95.63
2022-12-25T08:31:20.233Z,101.38
2022-12-25T08:33:48.645Z,112.55
2022-12-25T08:36:16.500Z,110.53
2022-12-25T08:38:43.734Z,117.45
2022-12-25T08:41:14.706Z,105.68
2022-12-25T08:43:41.684Z,110.80
2022-12-25T08:46:08.985Z,119.05
2022-12-25T08:48:36.418Z,120.10
2022-12-25T08:51:04.268Z,113.43
2022-12-25T08:53:31.295Z,107.25
2022-12-25T08:56:05.416Z,101.75
2022-12-25T08:58:32.844Z,113.85
2022-12-25T09:01:00.225Z,116.03
2022-12-25T09:03:28.084Z,111.32
2022-12-25T09:05:55.596Z,101.30
2022-12-25T09:08:22.819Z,101.28
2022-12-25T09:10:49.986Z,100.68
2022-12-25T09:13:16.984Z,95.60
2022-12-25T09:15:43.979Z,91.50
2022-12-25T09:18:11.004Z,97.97
2022-12-25T09:20:37.944Z,106.68
2022-12-25T09:23:09.961Z,113.07
2022-12-25T09:25:40.391Z,107.20
2022-12-25T09:28:07.296Z,106.32
2022-12-25T09:30:34.556Z,116.13
2022-12-25T09:33:01.666Z,112.22
2022-12-25T09:35:28.574Z,113.30
2022-12-25T09:37:55.488Z,99.97
2022-12-25T09:40:23.400Z,108.75
2022-12-25T09:42:53.925Z,118.03
2022-12-25T09:45:39.881Z,124.35
2022-12-25T09:48:06.978Z,112.50
2022-12-25T09:50:58.669Z,132.18
2022-12-25T09:53:27.856Z,74.22
2022-12-25T09:56:18.311Z,101.78
2022-12-25T09:58:45.368Z,100.38
2022-12-25T10:01:36.885Z,90.82
2022-12-25T10:04:29.830Z,85.68
2022-12-25T10:07:15.489Z,90.32
2022-12-25T10:10:01.094Z,96.63
2022-12-25T10:12:54.172Z,96.55
2022-12-25T10:15:54.742Z,85.78
2022-12-25T10:18:36.850Z,90.32
2022-12-25T10:21:09.468Z,93.90
2022-12-25T10:24:07.786Z,92.65
2022-12-25T10:26:35.764Z,94.90
2022-12-25T10:29:13.967Z,89.90
2022-12-25T10:31:44.190Z,85.82
2022-12-25T10:34:12.580Z,84.35
2022-12-25T10:36:39.717Z,97.80
2022-12-25T10:39:06.813Z,101.32
2022-12-25T10:42:11.004Z,100.47
2022-12-25T10:44:38.016Z,94.93
2022-12-25T10:47:05.560Z,93.90
2022-12-25T10:49:35.718Z,95.18
2022-12-25T10:52:04.150Z,96.25
2022-12-25T10:54:35.808Z,100.35
2022-12-25T10:57:08.817Z,85.50
2022-12-25T10:59:48.608Z,83.63
2022-12-25T11:02:30.309Z,79.32
2022-12-25T11:05:09.933Z,83.30
2022-12-25T11:07:46.829Z,85.88
2022-12-25T11:10:23.815Z,92.35
2022-12-25T11:12:51.225Z,112.65
2022-12-25T11:15:51.051Z,112.30
2022-12-25T11:18:22.048Z,92.72
2022-12-25T11:20:49.863Z,100.10
2022-12-25T11:23:21.052Z,102.82
2022-12-25T11:26:07.654Z,100.70
2022-12-25T11:28:37.605Z,103.28
2022-12-25T11:31:13.211Z,102.72
2022-12-25T11:33:55.968Z,100.03
2022-12-25T11:36:45.596Z,101.20
2022-12-25T11:39:24.799Z,111.97
2022-12-25T11:41:58.980Z,110.30
2022-12-25T11:44:35.785Z,119.90
2022-12-25T11:47:13.111Z,109.57
2022-12-25T11:49:50.303Z,106.80
2022-12-25T11:52:19.115Z,103.25
2022-12-25T11:54:53.635Z,101.18
2022-12-25T11:57:22.821Z,107.47
2022-12-25T12:00:14.072Z,121.40
2022-12-25T12:03:01.461Z,110.35
2022-12-25T12:05:42.809Z,113.65
2022-12-25T12:08:10.944Z,102.20
2022-12-25T12:10:58.906Z,106.82
2022-12-25T12:13:29.086Z,107.15
2022-12-25T12:15:56.692Z,107.30
2022-12-25T12:18:26.685Z,113.55
2022-12-25T12:21:11.829Z,110.53
2022-12-25T12:24:01.029Z,104.82
2022-12-25T12:26:29.972Z,102.10
2022-12-25T12:29:01.345Z,112.60
2022-12-25T12:31:43.783Z,113.90
2022-12-25T12:34:34.476Z,114.57
2022-12-25T12:37:05.432Z,113.95
2022-12-25T12:39:37.772Z,124.20
2022-12-25T12:42:18.040Z,133.43
2022-12-25T12:44:45.966Z,145.65
2022-12-25T12:47:44.215Z,136.30
2022-12-25T12:50:33.415Z,151.52
2022-12-25T12:53:10.586Z,170.88
2022-12-25T12:55:37.647Z,188.20
2022-12-25T12:58:06.253Z,191.68
2022-12-25T13:00:49.289Z,173.40
2022-12-25T13:03:39.798Z,161.25
2022-12-25T13:06:16.165Z,192.02
2022-12-25T13:09:07.789Z,252.15
2022-12-25T13:11:40.613Z,202.15
2022-12-25T13:14:15.410Z,208.68
2022-12-25T13:16:44.395Z,284.05
2022-12-25T13:19:15.127Z,301.90
2022-12-25T13:21:54.307Z,293.65
2022-12-25T13:24:29.146Z,365.13
2022-12-25T13:26:56.287Z,368.45
2022-12-25T13:29:36.484Z,430.65
2022-12-25T13:32:05.876Z,301.00
2022-12-25T13:34:34.053Z,363.25
2022-12-25T13:37:07.883Z,369.15
2022-12-25T13:39:36.747Z,433.10
2022-12-25T13:42:06.083Z,346.63
2022-12-25T13:44:59.279Z,382.13
2022-12-25T13:47:31.265Z,412.90
2022-12-25T13:49:59.943Z,551.05
2022-12-25T13:52:45.621Z,575.08
2022-12-25T13:55:13.158Z,471.60
2022-12-25T13:58:01.706Z,510.58
2022-12-25T14:00:28.809Z,442.80
2022-12-25T14:02:55.987Z,520.60
2022-12-25T14:05:37.964Z,535.17
2022-12-25T14:08:24.776Z,381.20
2022-12-25T14:10:52.839Z,503.20
2022-12-25T14:13:22.820Z,425.55
2022-12-25T14:15:51.287Z,424.05
2022-12-25T14:18:19.751Z,422.60
2022-12-25T14:21:03.340Z,514.08
2022-12-25T14:23:40.731Z,578.75
2022-12-25T14:26:07.764Z,448.10
2022-12-25T14:28:36.575Z,495.15
2022-12-25T14:31:04.967Z,406.15
2022-12-25T14:33:37.058Z,693.45
2022-12-25T14:36:04.453Z,560.70
2022-12-25T14:38:35.130Z,600.95
2022-12-25T14:41:33.815Z,585.28
2022-12-25T14:44:03.896Z,681.25
2022-12-25T14:46:32.381Z,739.22
2022-12-25T14:49:04.797Z,669.83
2022-12-25T14:51:33.410Z,792.30
2022-12-25T14:54:05.686Z,547.88
2022-12-25T14:56:39.345Z,876.47
2022-12-25T14:59:10.214Z,719.33
2022-12-25T15:01:39.872Z,759.85
2022-12-25T15:04:12.651Z,655.78
2022-12-25T15:06:42.064Z,681.15
2022-12-25T15:09:16.850Z,444.55
2022-12-25T15:11:43.774Z,682.72
2022-12-25T15:14:10.646Z,416.77
2022-12-25T15:16:42.188Z,649.85
2022-12-25T15:19:10.449Z,621.22
2022-12-25T15:21:37.824Z,614.30
2022-12-25T15:24:04.913Z,498.08
2022-12-25T15:26:32.669Z,621.70
2022-12-25T15:28:59.564Z,641.20
2022-12-25T15:31:32.120Z,694.25
2022-12-25T15:34:02.215Z,684.28
2022-12-25T15:36:29.458Z,624.78
2022-12-25T15:38:56.578Z,704.80
2022-12-25T15:41:55.547Z,721.75
2022-12-25T15:44:23.263Z,397.77
2022-12-25T15:46:50.320Z,720.97
2022-12-25T15:49:17.737Z,506.23
2022-12-25T15:51:45.575Z,500.48
2022-12-25T15:54:12.764Z,565.40
2022-12-25T15:56:49.116Z,360.23
2022-12-25T15:59:17.886Z,706.65
2022-12-25T16:01:50.605Z,524.03
2022-12-25T16:04:18.338Z,808.80
2022-12-25T16:06:45.411Z,709.00
2022-12-25T16:09:13.450Z,492.42
2022-12-25T16:11:40.969Z,553.25
2022-12-25T16:14:08.389Z,760.75
2022-12-25T16:16:35.836Z,649.10
2022-12-25T16:19:03.342Z,399.17
2022-12-25T16:21:38.747Z,810.83
2022-12-25T16:24:06.159Z,587.58
2022-12-25T16:26:33.564Z,616.05
2022-12-25T16:29:06.776Z,576.88
2022-12-25T16:31:35.048Z,503.05
2022-12-25T16:34:02.461Z,593.33
2022-12-25T16:36:29.469Z,597.53
2022-12-25T16:38:56.446Z,398.25
2022-12-25T16:41:23.461Z,505.55
2022-12-25T16:43:50.393Z,544.95
2022-12-25T16:46:19.612Z,678.63
2022-12-25T16:48:46.873Z,571.75
2022-12-25T16:51:16.609Z,349.33
2022-12-25T16:53:44.611Z,487.83
2022-12-25T16:56:17.268Z,580.33
2022-12-25T16:58:46.810Z,439.92
2022-12-25T17:01:17.212Z,405.33
2022-12-25T17:03:44.663Z,431.40
2022-12-25T17:06:16.408Z,361.95
2022-12-25T17:08:44.117Z,451.10
2022-12-25T17:11:11.423Z,472.80
2022-12-25T17:13:38.456Z,464.95
2022-12-25T17:16:23.098Z,483.83
2022-12-25T17:19:16.020Z,432.92
2022-12-25T17:21:43.043Z,486.08
2022-12-25T17:24:10.016Z,517.70
2022-12-25T17:26:37.118Z,537.40
2022-12-25T17:29:04.149Z,391.73
2022-12-25T17:31:31.199Z,418.02
2022-12-25T17:34:00.307Z,437.48
2022-12-25T17:36:27.786Z,507.52
2022-12-25T17:38:54.785Z,444.73
2022-12-25T17:41:22.030Z,537.03
2022-12-25T17:43:49.042Z,497.38
2022-12-25T17:46:18.678Z,495.50
2022-12-25T17:48:46.374Z,385.63
2022-12-25T17:51:16.256Z,397.27
2022-12-25T17:53:45.570Z,446.80
2022-12-25T17:56:13.870Z,738.70
2022-12-25T17:58:40.879Z,493.70
2022-12-25T18:01:10.453Z,481.73
2022-12-25T18:03:37.717Z,631.85
2022-12-25T18:06:09.089Z,752.45
2022-12-25T18:08:39.543Z,709.90
2022-12-25T18:11:12.242Z,576.13
2022-12-25T18:13:40.767Z,809.13
2022-12-25T18:16:08.776Z,646.55
2022-12-25T18:18:35.882Z,713.88
2022-12-25T18:21:02.954Z,611.88
2022-12-25T18:23:30.082Z,648.70
2022-12-25T18:25:57.424Z,798.55
2022-12-25T18:28:24.455Z,500.92
2022-12-25T18:30:51.551Z,808.92
2022-12-25T18:33:18.489Z,610.90
2022-12-25T18:35:46.846Z,598.05
2022-12-25T18:38:14.524Z,789.63
2022-12-25T18:40:47.363Z,792.08
2022-12-25T18:43:15.617Z,590.47
2022-12-25T18:45:43.343Z,806.60
2022-12-25T18:48:11.226Z,674.20
2022-12-25T18:50:40.647Z,767.40
2022-12-25T18:53:08.039Z,428.00
2022-12-25T18:55:36.474Z,532.05
2022-12-25T18:58:04.230Z,535.70
2022-12-25T19:00:31.553Z,590.20
2022-12-25T19:02:59.540Z,659.08
2022-12-25T19:05:27.226Z,522.70
2022-12-25T19:07:54.719Z,497.23
2022-12-25T19:10:22.545Z,482.10
2022-12-25T19:12:50.832Z,532.22
2022-12-25T19:15:18.714Z,544.53
2022-12-25T19:17:46.409Z,507.15
2022-12-25T19:20:14.316Z,384.80
2022-12-25T19:22:41.985Z,390.38
2022-12-25T19:25:09.532Z,441.55
2022-12-25T19:27:36.775Z,463.05
2022-12-25T19:30:04.151Z,501.83
2022-12-25T19:32:31.342Z,383.98
2022-12-25T19:34:59.842Z,428.13
2022-12-25T19:37:28.104Z,475.02
2022-12-25T19:39:59.601Z,351.88
2022-12-25T19:42:27.344Z,620.60
2022-12-25T19:44:57.619Z,624.15
2022-12-25T19:47:25.775Z,616.53
2022-12-25T19:49:55.553Z,607.75
2022-12-25T19:52:26.667Z,575.72
2022-12-25T19:54:56.149Z,575.50
2022-12-25T19:57:24.829Z,554.55
2022-12-25T19:59:52.668Z,474.48
2022-12-25T20:02:20.227Z,620.92
2022-12-25T20:04:48.209Z,716.47
2022-12-25T20:07:18.895Z,519.08
2022-12-25T20:09:47.255Z,775.13
2022-12-25T20:12:16.625Z,652.92
2022-12-25T20:14:44.420Z,662.42
2022-12-25T20:17:15.823Z,637.25
2022-12-25T20:19:43.737Z,618.83
2022-12-25T20:22:11.051Z,577.78
2022-12-25T20:24:38.152Z,586.30
2022-12-25T20:27:05.298Z,550.00
2022-12-25T20:29:32.319Z,750.72
2022-12-25T20:31:59.410Z,678.92
2022-12-25T20:34:26.373Z,819.50
2022-12-25T20:36:53.330Z,745.88
2022-12-25T20:39:20.519Z,624.20
2022-12-25T20:41:47.863Z,574.47
2022-12-25T20:44:14.980Z,614.95
2022-12-25T20:46:43.095Z,582.17
2022-12-25T20:49:13.215Z,836.08
2022-12-25T20:51:42.256Z,589.95
2022-12-25T20:54:09.989Z,643.85
2022-12-25T20:56:37.282Z,685.38
2022-12-25T20:59:05.710Z,714.28
2022-12-25T21:01:33.174Z,617.83
2022-12-25T21:04:00.337Z,827.72
2022-12-25T21:06:28.678Z,620.97
2022-12-25T21:09:17.291Z,556.83
2022-12-25T21:11:44.821Z,567.97
2022-12-25T21:14:12.174Z,782.60
2022-12-25T21:16:39.400Z,702.40
2022-12-25T21:19:07.324Z,747.50
2022-12-25T21:21:36.199Z,685.67
2022-12-25T21:24:04.249Z,736.17
2022-12-25T21:26:33.326Z,744.35
2022-12-25T21:29:05.522Z,711.08
2022-12-25T21:31:56.333Z,762.72
2022-12-25T21:34:26.180Z,849.83
2022-12-25T21:36:54.427Z,726.88
2022-12-25T21:39:22.496Z,940.85
2022-12-25T21:41:49.616Z,747.60
2022-12-25T21:44:17.913Z,755.28
2022-12-25T21:46:45.874Z,676.67
2022-12-25T21:49:33.256Z,770.10
2022-12-25T21:52:13.077Z,877.03
2022-12-25T21:54:41.583Z,741.08
2022-12-25T21:57:09.661Z,860.75
2022-12-25T21:59:38.906Z,874.40
2022-12-25T22:02:11.646Z,659.67
2022-12-25T22:04:39.430Z,634.00
2022-12-25T22:07:21.620Z,710.28
2022-12-25T22:12:38.329Z,584.92
2022-12-25T22:15:07.738Z,846.10
2022-12-25T22:18:00.874Z,835.72
2022-12-25T22:20:36.472Z,890.28
2022-12-25T22:23:04.320Z,700.00
2022-12-25T22:25:31.334Z,629.15
2022-12-25T22:27:58.437Z,846.53
2022-12-25T22:30:29.920Z,789.35
2022-12-25T22:32:57.300Z,748.85
2022-12-25T22:35:24.911Z,792.03
2022-12-25T22:37:53.495Z,692.45
2022-12-25T22:40:20.567Z,927.78
2022-12-25T22:42:47.625Z,776.20
2022-12-25T22:45:15.221Z,796.28
2022-12-25T22:47:42.441Z,895.45
2022-12-25T22:50:11.068Z,653.35
2022-12-25T22:52:38.374Z,653.97
2022-12-25T22:55:07.813Z,876.45
2022-12-25T22:57:35.582Z,764.10
2022-12-25T23:00:03.003Z,845.95
2022-12-25T23:02:30.046Z,473.35
2022-12-25T23:04:57.153Z,737.72
2022-12-25T23:07:24.013Z,850.47
2022-12-25T23:09:52.105Z,742.15
2022-12-25T23:12:37.356Z,771.47
2022-12-25T23:15:04.785Z,809.38
2022-12-25T23:17:50.385Z,713.50
2022-12-25T23:20:36.108Z,762.53
2022-12-25T23:23:22.027Z,887.28
2022-12-25T23:26:07.517Z,726.63
2022-12-25T23:28:57.717Z,782.00
2022-12-25T23:31:29.502Z,947.80
2022-12-25T23:36:23.783Z,896.58
2022-12-25T23:38:50.684Z,930.50
2022-12-25T23:41:17.639Z,766.67
2022-12-25T23:43:44.503Z,757.10
2022-12-25T23:46:11.474Z,810.63
2022-12-25T23:48:38.499Z,788.65
2022-12-25T23:51:06.239Z,884.78
2022-12-25T23:53:34.018Z,916.00
2022-12-25T23:56:01.131Z,751.40
2022-12-25T23:58:28.825Z,880.53
